createdAt,value
2022-12-26T00:01:12.389Z,79.54
2022-12-26T00:03:40.784Z,79.96
2022-12-26T00:06:21.522Z,79.66
2022-12-26T00:08:51.832Z,78.70
2022-12-26T00:11:22.944Z,79.91
2022-12-26T00:14:06.104Z,79.28
2022-12-26T00:16:34.826Z,79.34
2022-12-26T00:19:08.880Z,78.56
2022-12-26T00:21:44.465Z,78.56
2022-12-26T00:24:15.775Z,78.73
2022-12-26T00:26:44.055Z,78.90
2022-12-26T00:29:14.377Z,79.17
2022-12-26T00:31:48.011Z,78.78
2022-12-26T00:34:19.706Z,78.09
2022-12-26T00:36:57.432Z,79.00
2022-12-26T00:40:04.705Z,79.92
2022-12-26T00:42:39.613Z,78.89
2022-12-26T00:45:16.668Z,79.45
2022-12-26T00:47:44.784Z,78.80
2022-12-26T00:50:15.935Z,78.69
2022-12-26T00:52:44.885Z,79.61
2022-12-26T00:55:16.916Z,79.70
2022-12-26T00:57:46.548Z,80.05
2022-12-26T01:00:18.270Z,79.81
2022-12-26T01:02:54.131Z,79.37
2022-12-26T01:05:22.523Z,79.78
2022-12-26T01:08:20.225Z,79.91
2022-12-26T01:10:46.741Z,80.22
2022-12-26T01:13:15.807Z,80.74
2022-12-26T01:15:54.475Z,80.25
2022-12-26T01:18:22.518Z,79.80
2022-12-26T01:20:50.579Z,80.66
2022-12-26T01:23:18.640Z,82.06
2022-12-26T01:26:15.372Z,80.53
2022-12-26T01:28:36.290Z,79.62
2022-12-26T01:31:06.801Z,81.04
2022-12-26T01:33:34.991Z,80.78
2022-12-26T01:36:03.044Z,81.77
2022-12-26T01:38:32.212Z,82.04
2022-12-26T01:41:19.960Z,81.67
2022-12-26T01:44:05.696Z,82.12
2022-12-26T01:46:46.605Z,82.81
2022-12-26T01:49:31.494Z,82.69
2022-12-26T01:52:08.705Z,82.21
2022-12-26T01:54:43.143Z,81.34
2022-12-26T01:57:38.062Z,80.98
2022-12-26T02:00:07.487Z,81.42
2022-12-26T02:03:01.859Z,81.65
2022-12-26T02:05:36.058Z,83.17
2022-12-26T02:08:10.286Z,82.45
2022-12-26T02:10:57.076Z,82.24
2022-12-26T02:13:29.419Z,82.16
2022-12-26T02:15:57.881Z,81.28
2022-12-26T02:18:27.051Z,81.74
2022-12-26T02:21:14.431Z,82.79
2022-12-26T02:24:01.423Z,82.28
2022-12-26T02:26:49.145Z,82.40
2022-12-26T02:29:29.307Z,83.59
2022-12-26T02:32:15.299Z,83.53
2022-12-26T02:35:16.293Z,82.92
2022-12-26T02:38:22.531Z,82.48
2022-12-26T02:41:09.282Z,82.80
2022-12-26T02:43:47.554Z,82.96
2022-12-26T02:46:40.821Z,82.61
2022-12-26T02:49:17.091Z,82.25
2022-12-26T02:52:24.382Z,83.36
2022-12-26T02:55:21.022Z,83.46
2022-12-26T02:58:24.895Z,83.47
2022-12-26T03:01:34.142Z,82.86
2022-12-26T03:04:27.488Z,82.53
2022-12-26T03:07:19.169Z,81.74
2022-12-26T03:10:08.723Z,81.35
2022-12-26T03:13:05.082Z,81.49
2022-12-26T03:15:57.663Z,81.57
2022-12-26T03:18:58.417Z,81.25
2022-12-26T03:21:26.415Z,80.62
2022-12-26T03:23:57.155Z,80.96
2022-12-26T03:26:41.008Z,80.61
2022-12-26T03:29:41.990Z,80.64
2022-12-26T03:32:12.533Z,80.33
2022-12-26T03:34:44.528Z,81.24
2022-12-26T03:37:59.590Z,81.46
2022-12-26T03:41:27.623Z,81.63
2022-12-26T03:44:53.439Z,81.31
2022-12-26T03:47:49.799Z,81.70
2022-12-26T03:51:02.246Z,82.37
2022-12-26T03:54:03.158Z,81.81
2022-12-26T03:57:05.000Z,81.93
2022-12-26T04:00:06.001Z,81.92
2022-12-26T04:03:03.006Z,82.10
2022-12-26T04:05:52.079Z,81.75
2022-12-26T04:08:48.267Z,81.26
2022-12-26T04:11:37.319Z,81.50
2022-12-26T04:14:53.573Z,81.64
2022-12-26T04:17:52.539Z,81.00
2022-12-26T04:20:34.192Z,81.05
2022-12-26T04:23:30.217Z,82.31
2022-12-26T04:26:25.965Z,82.19
2022-12-26T04:29:12.569Z,81.49
2022-12-26T04:32:01.451Z,82.73
2022-12-26T04:35:22.555Z,82.45
2022-12-26T04:38:11.167Z,82.36
2022-12-26T04:41:02.219Z,81.75
2022-12-26T04:43:52.018Z,82.02
2022-12-26T04:46:23.349Z,82.99
2022-12-26T04:49:13.589Z,82.41
2022-12-26T04:51:41.607Z,82.45
2022-12-26T04:54:09.802Z,81.55
2022-12-26T04:56:38.844Z,81.68
2022-12-26T04:59:09.136Z,81.59
2022-12-26T05:01:55.759Z,81.66
2022-12-26T05:04:43.634Z,82.03
2022-12-26T05:07:40.202Z,81.73
2022-12-26T05:10:15.944Z,81.10
2022-12-26T05:12:44.013Z,81.94
2022-12-26T05:15:12.359Z,81.59
2022-12-26T05:17:58.960Z,81.38
2022-12-26T05:20:47.360Z,81.46
2022-12-26T05:23:42.443Z,80.69
2022-12-26T05:26:36.237Z,80.00
2022-12-26T05:29:04.622Z,79.81
2022-12-26T05:31:36.180Z,80.05
2022-12-26T05:34:17.584Z,80.20
2022-12-26T05:36:51.887Z,79.54
2022-12-26T05:39:20.374Z,79.32
2022-12-26T05:41:48.503Z,79.32
2022-12-26T05:44:17.182Z,79.15
2022-12-26T05:46:47.213Z,79.08
2022-12-26T05:49:16.426Z,78.77
2022-12-26T05:51:45.251Z,78.53
2022-12-26T05:54:13.517Z,78.42
2022-12-26T05:56:45.869Z,78.10
2022-12-26T05:59:17.375Z,77.96
2022-12-26T06:01:45.541Z,77.78
2022-12-26T06:04:14.928Z,77.99
2022-12-26T06:06:43.050Z,78.03
2022-12-26T06:09:11.054Z,78.05
2022-12-26T06:11:43.809Z,77.98
2022-12-26T06:14:17.258Z,77.65
2022-12-26T06:16:45.436Z,77.73
2022-12-26T06:19:13.450Z,77.62
2022-12-26T06:21:41.599Z,77.25
2022-12-26T06:24:09.666Z,77.38
2022-12-26T06:26:37.939Z,77.00
2022-12-26T06:29:06.000Z,76.87
2022-12-26T06:31:34.472Z,76.73
2022-12-26T06:34:02.754Z,76.67
2022-12-26T06:36:34.293Z,76.94
2022-12-26T06:39:02.660Z,76.63
2022-12-26T06:41:30.907Z,76.57
2022-12-26T06:44:00.058Z,76.47
2022-12-26T06:46:31.189Z,76.35
2022-12-26T06:57:35.565Z,75.85
2022-12-26T07:00:49.239Z,76.01
2022-12-26T07:07:35.335Z,75.80
2022-12-26T07:18:42.387Z,75.17
2022-12-26T07:29:38.720Z,73.24
2022-12-26T07:33:02.373Z,73.05
2022-12-26T07:39:50.302Z,71.17
2022-12-26T07:42:43.492Z,69.13
2022-12-26T07:53:36.032Z,57.97
2022-12-26T08:04:13.038Z,54.43
2022-12-26T08:11:03.593Z,52.22
2022-12-26T08:14:05.673Z,52.04
2022-12-26T08:25:10.163Z,43.94
2022-12-26T08:36:13.271Z,40.86
2022-12-26T08:47:00.233Z,37.80
2022-12-26T09:02:07.006Z,37.25
2022-12-26T09:08:59.728Z,35.82
2022-12-26T09:28:40.911Z,32.88
2022-12-26T09:39:22.956Z,32.65
2022-12-26T09:50:36.050Z,31.36
2022-12-26T10:01:49.212Z,30.72
2022-12-26T10:04:55.049Z,30.88
2022-12-26T10:20:41.011Z,27.68
2022-12-26T10:36:09.060Z,27.41
2022-12-26T10:42:59.675Z,27.68
2022-12-26T11:02:37.804Z,28.40
2022-12-26T11:14:01.322Z,28.39
2022-12-26T11:25:10.012Z,27.02
2022-12-26T11:28:21.137Z,26.38
2022-12-26T11:39:28.795Z,26.10
2022-12-26T11:54:58.983Z,25.82
2022-12-26T12:01:47.438Z,26.61
2022-12-26T12:21:41.220Z,28.36
2022-12-26T13:08:43.658Z,35.02
2022-12-26T13:33:58.831Z,39.81
2022-12-26T13:49:40.050Z,41.55
2022-12-26T13:52:19.463Z,42.03
2022-12-26T13:54:51.888Z,42.88
2022-12-26T13:57:41.276Z,43.64
2022-12-26T14:00:46.186Z,43.90
2022-12-26T14:03:21.408Z,44.98
2022-12-26T14:06:19.847Z,45.90
2022-12-26T14:08:56.890Z,46.31
2022-12-26T14:11:57.100Z,47.51
2022-12-26T14:14:37.064Z,48.53
2022-12-26T14:17:25.715Z,48.52
2022-12-26T14:20:01.209Z,48.98
2022-12-26T14:22:51.847Z,48.66
2022-12-26T14:25:44.784Z,48.43
2022-12-26T14:28:37.850Z,49.59
2022-12-26T14:31:22.397Z,50.57
2022-12-26T14:34:27.577Z,52.24
2022-12-26T14:37:04.442Z,53.17
2022-12-26T14:39:38.444Z,53.30
2022-12-26T14:42:24.958Z,53.25
2022-12-26T14:45:00.214Z,53.54
2022-12-26T14:47:40.934Z,55.58
2022-12-26T14:50:34.963Z,54.88
2022-12-26T14:53:33.956Z,55.49
2022-12-26T14:56:03.432Z,56.48
2022-12-26T14:58:42.832Z,58.06
2022-12-26T15:01:18.589Z,57.98
2022-12-26T15:04:26.425Z,58.22
2022-12-26T15:07:39.852Z,59.11
2022-12-26T15:10:43.488Z,59.54
2022-12-26T15:13:38.054Z,60.64
2022-12-26T15:16:38.367Z,61.30
2022-12-26T15:19:29.484Z,62.08
2022-12-26T15:22:37.739Z,62.04
2022-12-26T15:29:52.997Z,62.65
2022-12-26T15:32:41.964Z,62.36
2022-12-26T15:35:36.518Z,63.73
2022-12-26T15:38:42.740Z,64.65
2022-12-26T15:41:32.034Z,66.11
2022-12-26T15:44:16.340Z,66.04
2022-12-26T15:47:24.239Z,64.78
2022-12-26T15:49:58.045Z,65.33
2022-12-26T15:52:58.723Z,66.55
2022-12-26T15:55:52.190Z,67.14
2022-12-26T15:59:19.676Z,68.05
2022-12-26T16:01:55.557Z,67.80
2022-12-26T16:08:46.237Z,67.90
2022-12-26T16:12:04.526Z,68.65
2022-12-26T16:15:29.702Z,69.52
2022-12-26T16:18:39.834Z,68.95
2022-12-26T16:21:32.205Z,69.59
2022-12-26T16:24:05.814Z,69.19
2022-12-26T16:26:44.826Z,69.28
2022-12-26T16:29:21.337Z,69.80
2022-12-26T16:31:49.533Z,69.96
2022-12-26T16:34:21.807Z,70.64
2022-12-26T16:36:53.223Z,70.75
2022-12-26T16:39:23.652Z,71.44
2022-12-26T16:42:17.055Z,70.94
2022-12-26T16:44:49.042Z,71.29
2022-12-26T16:47:36.924Z,71.87
2022-12-26T16:50:18.165Z,71.79
2022-12-26T16:53:16.458Z,72.47
2022-12-26T16:55:52.573Z,73.00
2022-12-26T16:58:38.963Z,73.06
2022-12-26T17:01:19.707Z,73.09
2022-12-26T17:04:18.926Z,73.50
2022-12-26T17:07:27.966Z,73.91
2022-12-26T17:10:23.855Z,74.26
2022-12-26T17:13:20.028Z,74.47
2022-12-26T17:16:03.486Z,74.26
2022-12-26T17:21:40.001Z,75.69
2022-12-26T17:24:21.437Z,75.42
2022-12-26T17:27:32.324Z,74.76
2022-12-26T17:30:31.092Z,75.67
2022-12-26T17:33:03.962Z,75.46
2022-12-26T17:36:25.399Z,76.09
2022-12-26T17:38:30.055Z,76.86
2022-12-26T17:41:06.886Z,77.36
2022-12-26T17:43:47.807Z,77.62
2022-12-26T17:46:23.142Z,77.89
2022-12-26T17:48:58.097Z,78.07
2022-12-26T17:51:46.219Z,78.27
2022-12-26T17:54:26.166Z,77.52
2022-12-26T18:00:31.498Z,78.64
2022-12-26T18:03:39.749Z,77.74
2022-12-26T18:06:47.485Z,75.95
2022-12-26T18:09:40.772Z,77.37
2022-12-26T18:17:22.002Z,78.80
2022-12-26T18:19:52.416Z,78.62
2022-12-26T18:22:32.253Z,77.95
2022-12-26T18:29:19.174Z,79.15
2022-12-26T18:31:59.039Z,78.49
2022-12-26T18:35:17.267Z,77.05
2022-12-26T18:38:00.909Z,78.06
2022-12-26T18:49:48.342Z,80.98
2022-12-26T19:09:23.961Z,82.13
2022-12-26T19:20:28.128Z,81.77
2022-12-26T19:31:28.915Z,83.45
2022-12-26T19:42:20.074Z,84.48
2022-12-26T19:57:24.655Z,84.58
2022-12-26T20:04:11.165Z,83.53
2022-12-26T20:07:20.026Z,83.31
2022-12-26T20:14:11.608Z,83.05
2022-12-26T20:24:55.721Z,83.87
2022-12-26T20:28:04.215Z,83.52
2022-12-26T20:34:51.074Z,83.55
2022-12-26T20:37:59.386Z,82.76
2022-12-26T20:44:45.546Z,83.36
2022-12-26T20:47:44.455Z,83.14
2022-12-26T20:58:52.205Z,83.92
2022-12-26T21:09:52.372Z,84.18
2022-12-26T21:25:14.696Z,83.86
2022-12-26T21:28:16.871Z,83.61
2022-12-26T21:35:07.525Z,83.74
2022-12-26T21:38:09.602Z,83.52
2022-12-26T21:44:59.614Z,84.00
2022-12-26T22:00:09.316Z,84.64
2022-12-26T22:14:33.927Z,84.47
2022-12-26T22:21:25.243Z,84.47
2022-12-26T22:24:10.635Z,84.20
2022-12-26T22:30:58.836Z,85.65
2022-12-26T22:34:05.788Z,85.52
2022-12-26T22:40:57.765Z,85.41
2022-12-26T22:51:44.179Z,85.22
2022-12-26T22:54:47.452Z,85.96
2022-12-26T23:10:30.016Z,85.36
2022-12-26T23:25:31.573Z,86.30
2022-12-26T23:32:19.220Z,86.87
2022-12-26T23:43:24.573Z,85.64
2022-12-26T23:58:29.724Z,86.88
